map of BCE home
BCE - Airport
Location
City:  Bryce Canyon, Utah, United States
ICAO:KBCE
IATA:BCE
FAA LID:BCE

Details
Type:Airport (Airfield)
Use:Public/Civil
Latitude:3742'23"N (37.706444)
Longitude:11208'45"W (-112.145805)
Datum:WGS 1984
Elevation:7589 ft (2313 m)
Variation:10.91E (WMM2015 magnetic declination)
-0.10 annual change
Runways:1
Longest:7395 × 75 ft (2254 × 23 m), paved

Weather
METAR:KBCE 190453Z AUTO 30004KT 10SM CLR M12/M14 A3035 RMK AO2 SLP293 T11171139
TAF:KBCE 190530Z 1906/2006 29007KT P6SM SCT120
FM191500 29007KT P6SM SCT020 BKN050
FM192200 30007KT P6SM SCT050

Related Locations
Nearby:
Farthest:RRG: 11165 mi / 17969 km
Plaine Corail [Sir Gatan Duval Airport (Plaine Corail Airport)], Rodrigues Island, MU

Find:

   beyond  
but within

Other Information
Maps:
NOTAMs:
Links:
Sources:

  
  • flag of United States
  • flag of Utah
  

Sectional Chart

Flight Planning
at skyvector.com

Satellite Image

Google Maps Satellite view

 

Copyright © 2004-2019 Karl L. Swartz. All rights reserved.
The Great Circle Mapper name and logo are trademarks of the Great Circle Mapper.
All other trademarks mentioned herein belong to their respective owners.
Please see credits for attibutions and further copyright information.

  Follow gcmap on Facebook Follow gcmap on Twitter Follow gcmap on Google+ GCmap on LinkedIn

hCard Microformat

Geo Microformat